Time;durP1;ratioP1;P1;durP2;ratioP2;P2;SDS_P1;SDS_P2;PMS_P1;PMS_P2;Temp;Humidity;BMP_temperature;BMP_pressure;BME280_temperature;BME280_humidity;BME280_pressure;Samples;Min_cycle;Max_cycle;Signal;HPM_P1;HPM_P2
2023/04/20 00:01:46;;;;;;;1.70;1.23;;;16.80;75.70;;;;;;5033151;28;20084;-78
2023/04/20 00:04:14;;;;;;;2.40;1.45;;;16.80;75.60;;;;;;5031419;28;20029;-78
2023/04/20 00:06:42;;;;;;;2.30;1.60;;;16.80;75.50;;;;;;5027001;28;20112;-79
2023/04/20 00:09:08;;;;;;;1.60;1.30;;;16.80;75.40;;;;;;5032612;28;20037;-77
2023/04/20 00:11:34;;;;;;;2.33;1.40;;;16.80;75.30;;;;;;5026037;28;20029;-77
2023/04/20 00:14:00;;;;;;;3.88;1.70;;;16.80;75.20;;;;;;5025836;28;20144;-78
2023/04/20 00:16:25;;;;;;;3.22;1.40;;;16.80;75.30;;;;;;5016971;28;20040;-77
2023/04/20 00:18:51;;;;;;;2.25;1.50;;;16.80;75.40;;;;;;5032978;28;20029;-77
2023/04/20 00:21:20;;;;;;;2.55;1.30;;;16.80;75.50;;;;;;5026501;28;20026;-77
2023/04/20 00:23:46;;;;;;;2.03;1.45;;;16.70;75.60;;;;;;5026496;28;20021;-76
2023/04/20 00:26:12;;;;;;;1.80;1.65;;;16.70;75.70;;;;;;5034237;28;20040;-77
2023/04/20 00:28:37;;;;;;;2.95;1.50;;;16.70;75.80;;;;;;5017193;28;20025;-77
2023/04/20 00:31:04;;;;;;;3.03;1.63;;;16.70;75.90;;;;;;5027662;28;20092;-77
2023/04/20 00:33:30;;;;;;;1.85;1.42;;;16.70;76.00;;;;;;5023994;28;20036;-77
2023/04/20 00:35:56;;;;;;;1.95;1.70;;;16.70;76.20;;;;;;5032559;28;20037;-76
2023/04/20 00:38:21;;;;;;;2.65;1.77;;;16.60;76.50;;;;;;5036814;28;20477;-76
2023/04/20 00:40:51;;;;;;;2.83;1.77;;;16.60;76.30;;;;;;5036432;28;20112;-76
2023/04/20 00:43:17;;;;;;;2.08;1.85;;;16.60;76.30;;;;;;5036035;28;20025;-76
2023/04/20 00:45:44;;;;;;;2.58;1.90;;;16.60;76.40;;;;;;5034833;28;20045;-77
2023/04/20 00:48:10;;;;;;;2.75;2.15;;;16.60;76.50;;;;;;5036849;28;20105;-77
2023/04/20 00:50:37;;;;;;;2.00;1.50;;;16.60;76.60;;;;;;5026941;28;20481;-77
2023/04/20 00:53:03;;;;;;;2.63;1.92;;;16.60;76.50;;;;;;5036892;28;20079;-77
2023/04/20 00:55:30;;;;;;;3.05;2.03;;;16.60;76.60;;;;;;5034471;28;20029;-77
2023/04/20 00:57:56;;;;;;;1.95;1.60;;;16.60;76.80;;;;;;5036249;28;20485;-76
2023/04/20 01:00:21;;;;;;;1.90;1.35;;;16.60;77.00;;;;;;5034910;28;20059;-77
2023/04/20 01:02:47;;;;;;;1.77;1.60;;;16.60;76.90;;;;;;5036638;28;20013;-76
2023/04/20 01:05:13;;;;;;;1.75;1.65;;;16.60;76.80;;;;;;5034608;28;20045;-76
2023/04/20 01:07:39;;;;;;;2.17;1.48;;;16.60;76.80;;;;;;5036571;28;20097;-76
2023/04/20 01:10:08;;;;;;;2.50;1.92;;;16.60;76.90;;;;;;5030006;28;20038;-76
2023/04/20 01:12:34;;;;;;;1.92;1.67;;;16.60;76.90;;;;;;5036531;28;20112;-76
2023/04/20 01:14:59;;;;;;;2.42;1.98;;;16.50;76.90;;;;;;5034884;28;20565;-76
2023/04/20 01:17:25;;;;;;;2.05;1.60;;;16.50;76.90;;;;;;5035557;28;20041;-76
2023/04/20 01:19:51;;;;;;;3.33;2.78;;;16.50;77.00;;;;;;5041197;28;20026;-76
2023/04/20 01:22:20;;;;;;;2.28;2.05;;;16.50;77.10;;;;;;5035981;28;20373;-76
2023/04/20 01:24:46;;;;;;;3.22;2.35;;;16.50;77.40;;;;;;5032581;28;20115;-76
2023/04/20 01:27:15;;;;;;;4.35;2.80;;;16.50;77.70;;;;;;5035288;28;20061;-76
2023/04/20 01:29:41;;;;;;;2.55;2.35;;;16.50;78.00;;;;;;5035723;28;20132;-76
2023/04/20 01:32:06;;;;;;;2.88;2.33;;;16.50;78.30;;;;;;5036221;28;20501;-76
2023/04/20 01:34:32;;;;;;;3.00;2.40;;;16.50;78.60;;;;;;5048140;28;20022;-76
2023/04/20 01:36:58;;;;;;;2.67;2.20;;;16.50;78.70;;;;;;5036099;28;20041;-77
2023/04/20 01:39:24;;;;;;;2.75;2.33;;;16.50;78.90;;;;;;5027831;28;20029;-77
2023/04/20 01:41:50;;;;;;;4.63;2.65;;;16.50;79.40;;;;;;5028960;28;20038;-78
2023/04/20 01:44:16;;;;;;;3.70;2.72;;;16.50;79.70;;;;;;5009890;28;20026;-79
2023/04/20 01:46:42;;;;;;;2.70;2.33;;;16.50;79.90;;;;;;5019844;28;20033;-79
2023/04/20 01:49:08;;;;;;;3.55;3.05;;;16.50;80.40;;;;;;5038021;28;20029;-80
2023/04/20 01:51:34;;;;;;;3.17;2.42;;;16.40;80.50;;;;;;5030100;28;20404;-80
2023/04/20 01:54:01;;;;;;;2.42;2.03;;;16.40;81.10;;;;;;5035865;28;20048;-79
2023/04/20 01:56:27;;;;;;;2.17;1.80;;;16.40;81.40;;;;;;5034814;28;20125;-78
2023/04/20 01:58:53;;;;;;;2.92;1.90;;;16.40;81.50;;;;;;5034724;28;20117;-78
2023/04/20 02:01:19;;;;;;;2.20;1.77;;;16.30;81.60;;;;;;5027826;28;20030;-78
2023/04/20 02:03:45;;;;;;;2.97;1.70;;;16.20;81.80;;;;;;5023511;28;20080;-78
2023/04/20 02:06:10;;;;;;;2.58;1.63;;;16.20;82.20;;;;;;5030669;28;20041;-78
2023/04/20 02:08:36;;;;;;;5.63;2.00;;;16.20;82.80;;;;;;5029712;28;20434;-79
2023/04/20 02:11:02;;;;;;;3.22;1.33;;;16.10;83.20;;;;;;5034680;28;20044;-79
2023/04/20 02:13:27;;;;;;;1.65;1.50;;;16.10;83.30;;;;;;5035157;28;20044;-79
2023/04/20 02:15:54;;;;;;;1.95;1.58;;;16.00;83.30;;;;;;5032237;28;20075;-79
2023/04/20 02:18:20;;;;;;;1.73;1.63;;;16.00;83.60;;;;;;5034227;28;20067;-79
2023/04/20 02:20:46;;;;;;;1.58;1.25;;;16.00;84.00;;;;;;5034282;28;20752;-79
2023/04/20 02:23:12;;;;;;;1.70;1.60;;;15.90;84.10;;;;;;5017297;28;20035;-79
2023/04/20 02:25:38;;;;;;;4.13;1.90;;;15.90;84.30;;;;;;5024585;28;20486;-78
2023/04/20 02:28:04;;;;;;;3.00;1.90;;;15.90;84.70;;;;;;5010175;28;20041;-79
2023/04/20 02:30:30;;;;;;;2.78;2.15;;;15.90;85.40;;;;;;5026808;28;20131;-79
2023/04/20 02:32:56;;;;;;;3.03;1.83;;;15.80;85.50;;;;;;5035139;28;20437;-79
2023/04/20 02:35:22;;;;;;;1.73;1.60;;;15.80;85.50;;;;;;5034850;28;20025;-78
2023/04/20 02:37:48;;;;;;;2.00;1.80;;;15.80;86.00;;;;;;5032948;28;20378;-77
2023/04/20 02:40:14;;;;;;;2.03;1.67;;;15.80;86.10;;;;;;5028017;28;20072;-77
2023/04/20 02:42:40;;;;;;;1.90;1.60;;;15.80;86.40;;;;;;5034082;28;20725;-78
2023/04/20 02:45:06;;;;;;;2.00;1.70;;;15.80;86.70;;;;;;5033604;28;20022;-78
2023/04/20 02:47:32;;;;;;;2.53;1.60;;;15.80;87.70;;;;;;5026669;28;20077;-77
2023/04/20 02:49:57;;;;;;;3.20;1.90;;;15.80;87.00;;;;;;5035227;28;20491;-78
2023/04/20 02:52:23;;;;;;;2.55;1.80;;;15.70;87.10;;;;;;5049093;28;20556;-78
2023/04/20 02:54:49;;;;;;;3.10;1.98;;;15.70;87.30;;;;;;5033617;28;20121;-78
2023/04/20 02:57:14;;;;;;;2.20;1.75;;;15.70;87.50;;;;;;5031895;28;20409;-78
2023/04/20 02:59:40;;;;;;;3.95;1.98;;;15.70;88.00;;;;;;5022640;28;20407;-78
2023/04/20 03:02:06;;;;;;;2.25;1.63;;;15.70;88.50;;;;;;5028997;28;20065;-78
2023/04/20 03:04:32;;;;;;;2.60;1.88;;;15.60;88.90;;;;;;5033160;28;20034;-78
2023/04/20 03:06:58;;;;;;;1.90;1.60;;;15.60;88.90;;;;;;5019686;28;20032;-79
2023/04/20 03:09:24;;;;;;;2.67;1.83;;;15.60;89.30;;;;;;5033234;28;20037;-79
2023/04/20 03:11:50;;;;;;;3.55;1.75;;;15.60;89.70;;;;;;5022546;28;20029;-78
2023/04/20 03:14:16;;;;;;;2.35;2.00;;;15.60;89.80;;;;;;5029933;28;20045;-79
2023/04/20 03:16:42;;;;;;;3.33;2.00;;;15.70;90.10;;;;;;5032163;28;20041;-79
2023/04/20 03:19:07;;;;;;;3.50;1.98;;;15.60;90.20;;;;;;5034234;28;20482;-79
2023/04/20 03:21:34;;;;;;;4.95;1.50;;;15.60;90.30;;;;;;5034140;28;20026;-79
2023/04/20 03:24:00;;;;;;;3.00;1.85;;;15.60;90.30;;;;;;5016601;28;20115;-79
2023/04/20 03:26:26;;;;;;;2.65;1.70;;;15.60;90.20;;;;;;5032711;28;20478;-79
2023/04/20 03:28:51;;;;;;;2.70;1.95;;;15.60;90.30;;;;;;5033863;28;20021;-79
2023/04/20 03:31:17;;;;;;;3.35;1.88;;;15.50;90.30;;;;;;5033040;28;20029;-79
2023/04/20 03:33:43;;;;;;;2.97;1.52;;;15.50;90.50;;;;;;5033826;28;20037;-79
2023/04/20 03:36:10;;;;;;;2.22;1.63;;;15.50;90.50;;;;;;5031973;28;20438;-79
2023/04/20 03:38:35;;;;;;;2.25;1.60;;;15.50;90.60;;;;;;5033119;28;20022;-79
2023/04/20 03:41:01;;;;;;;2.10;1.80;;;15.50;90.80;;;;;;5033172;28;20393;-81
2023/04/20 03:43:27;;;;;;;2.65;1.67;;;15.50;90.90;;;;;;5034556;28;20060;-81
2023/04/20 03:45:52;;;;;;;3.28;1.80;;;15.50;90.90;;;;;;5040812;28;20021;-81
2023/04/20 03:48:18;;;;;;;3.30;1.90;;;15.50;90.80;;;;;;5033177;28;20041;-81
2023/04/20 03:50:44;;;;;;;3.42;1.77;;;15.50;90.90;;;;;;5024090;28;20043;-81
2023/04/20 03:53:10;;;;;;;2.30;1.70;;;15.50;91.00;;;;;;5026350;28;20030;-81
2023/04/20 03:55:36;;;;;;;2.00;1.80;;;15.60;91.20;;;;;;5016570;28;20033;-81
2023/04/20 03:58:02;;;;;;;1.70;1.60;;;15.60;91.20;;;;;;5032102;28;20041;-80
2023/04/20 04:00:27;;;;;;;2.67;1.85;;;15.60;91.10;;;;;;5025305;28;20018;-79
2023/04/20 04:02:53;;;;;;;1.95;1.40;;;15.60;91.00;;;;;;5015438;28;20083;-79
2023/04/20 04:05:19;;;;;;;4.70;2.25;;;15.60;91.00;;;;;;5030881;28;20428;-79
2023/04/20 04:07:45;;;;;;;2.28;1.55;;;15.60;91.00;;;;;;5033206;28;20041;-79
2023/04/20 04:10:10;;;;;;;1.58;1.33;;;15.60;90.90;;;;;;5025907;28;20021;-79
2023/04/20 04:12:36;;;;;;;1.70;1.50;;;15.60;91.00;;;;;;5030051;28;20044;-79
2023/04/20 04:15:02;;;;;;;2.13;1.88;;;15.60;90.90;;;;;;5028482;28;20378;-78
2023/04/20 04:17:27;;;;;;;4.07;2.15;;;15.60;90.90;;;;;;5031642;28;20063;-79
2023/04/20 04:19:53;;;;;;;3.80;1.98;;;15.60;91.00;;;;;;5032314;28;20025;-79
2023/04/20 04:22:19;;;;;;;3.78;2.75;;;15.60;91.10;;;;;;5032971;28;20359;-79
2023/04/20 04:24:44;;;;;;;3.03;2.20;;;15.60;91.10;;;;;;5031611;28;20029;-78
2023/04/20 04:27:13;;;;;;;4.07;2.65;;;15.50;91.00;;;;;;5026684;28;20060;-79
2023/04/20 04:29:40;;;;;;;2.80;2.22;;;15.60;91.20;;;;;;5022834;28;20025;-79
2023/04/20 04:32:06;;;;;;;2.08;1.70;;;15.50;91.30;;;;;;5032303;28;20053;-77
2023/04/20 04:34:33;;;;;;;2.67;2.22;;;15.50;91.00;;;;;;5031998;28;20116;-77
2023/04/20 04:37:00;;;;;;;3.33;2.28;;;15.50;91.00;;;;;;5017179;28;20021;-77
2023/04/20 04:39:27;;;;;;;2.30;2.10;;;15.50;90.90;;;;;;5031785;28;20029;-77
2023/04/20 04:41:53;;;;;;;2.85;2.17;;;15.50;90.90;;;;;;5031958;28;20033;-77
2023/04/20 04:44:20;;;;;;;2.08;1.80;;;15.50;90.80;;;;;;5048231;28;20501;-77
2023/04/20 04:46:46;;;;;;;3.38;1.63;;;15.50;90.90;;;;;;5001905;28;20033;-76
2023/04/20 04:49:13;;;;;;;2.40;2.20;;;15.50;90.90;;;;;;5043081;28;20504;-88
2023/04/20 04:51:39;;;;;;;2.22;1.63;;;15.50;90.80;;;;;;5029815;28;20473;-78
2023/04/20 04:54:05;;;;;;;2.85;1.70;;;15.50;90.70;;;;;;5052890;28;20032;-78
2023/04/20 04:56:31;;;;;;;2.80;2.10;;;15.50;90.70;;;;;;5030690;28;20485;-78
2023/04/20 04:58:56;;;;;;;2.05;1.77;;;15.50;90.80;;;;;;5016240;28;20026;-78
2023/04/20 05:01:22;;;;;;;3.75;1.80;;;15.50;90.70;;;;;;5029744;28;20042;-77
2023/04/20 05:03:48;;;;;;;2.20;1.48;;;15.50;90.60;;;;;;5018227;28;20033;-81
2023/04/20 05:06:14;;;;;;;2.35;1.90;;;15.50;90.60;;;;;;5001273;28;20097;-81
2023/04/20 05:08:39;;;;;;;3.25;2.17;;;15.50;90.50;;;;;;5030801;28;20038;-81
2023/04/20 05:11:05;;;;;;;2.72;2.22;;;15.40;90.50;;;;;;5035510;28;20041;-82
2023/04/20 05:13:31;;;;;;;2.85;1.92;;;15.40;90.80;;;;;;5049131;28;20021;-82
2023/04/20 05:15:56;;;;;;;2.97;2.13;;;15.40;90.60;;;;;;5040601;28;20026;-82
2023/04/20 05:18:22;;;;;;;3.72;2.25;;;15.40;90.60;;;;;;5033976;28;20362;-77
2023/04/20 05:20:48;;;;;;;3.47;2.05;;;15.40;90.60;;;;;;5036059;28;20454;-78
2023/04/20 05:23:13;;;;;;;2.47;1.85;;;15.40;90.70;;;;;;5021190;28;20029;-79
2023/04/20 05:25:39;;;;;;;3.10;2.28;;;15.40;90.70;;;;;;5047917;28;20048;-77
2023/04/20 05:28:05;;;;;;;5.57;2.65;;;15.40;90.70;;;;;;5046611;28;20044;-77
2023/04/20 05:30:32;;;;;;;2.95;2.30;;;15.40;90.80;;;;;;5032122;28;20030;-78
2023/04/20 05:32:57;;;;;;;2.70;1.90;;;15.40;90.70;;;;;;5031732;28;20478;-81
2023/04/20 05:35:23;;;;;;;2.80;2.38;;;15.40;90.80;;;;;;5033920;28;20073;-80
2023/04/20 05:37:49;;;;;;;3.00;2.42;;;15.50;90.90;;;;;;5033294;28;20513;-79
2023/04/20 05:40:14;;;;;;;2.55;2.28;;;15.50;91.10;;;;;;5034897;28;20056;-81
2023/04/20 05:42:40;;;;;;;4.95;2.47;;;15.50;90.90;;;;;;5034275;28;20096;-82
2023/04/20 05:45:07;;;;;;;3.10;2.25;;;15.60;90.80;;;;;;5035342;28;20465;-81
2023/04/20 05:47:32;;;;;;;3.42;2.53;;;15.60;90.80;;;;;;5036052;28;20025;-80
2023/04/20 05:49:58;;;;;;;5.15;2.92;;;15.70;90.90;;;;;;5035280;28;20045;-81
2023/04/20 05:52:24;;;;;;;3.45;2.55;;;15.70;90.80;;;;;;5035491;28;20057;-77
2023/04/20 05:54:50;;;;;;;3.45;2.15;;;15.70;90.80;;;;;;5038161;28;20068;-75
2023/04/20 05:57:15;;;;;;;3.22;2.42;;;15.70;90.80;;;;;;5037211;28;20085;-76
2023/04/20 05:59:41;;;;;;;2.50;2.28;;;15.70;90.90;;;;;;5036323;28;20060;-76
2023/04/20 06:02:07;;;;;;;3.10;2.63;;;15.70;91.10;;;;;;5034777;28;20100;-76
2023/04/20 06:04:33;;;;;;;7.65;2.92;;;15.80;91.00;;;;;;5035480;28;20033;-76
2023/04/20 06:06:59;;;;;;;4.18;3.05;;;15.80;91.00;;;;;;5035098;28;20072;-76
2023/04/20 06:09:25;;;;;;;4.78;2.85;;;15.80;91.00;;;;;;5035423;28;20420;-76
2023/04/20 06:11:51;;;;;;;4.32;3.15;;;15.80;91.00;;;;;;5035505;28;20030;-76
2023/04/20 06:14:16;;;;;;;6.85;3.17;;;15.90;91.10;;;;;;5035582;28;20108;-76
2023/04/20 06:16:42;;;;;;;2.95;2.53;;;15.90;91.00;;;;;;5034823;28;20374;-76
2023/04/20 06:19:08;;;;;;;3.65;2.72;;;16.00;91.10;;;;;;5035551;28;20362;-76
2023/04/20 06:21:35;;;;;;;5.75;3.03;;;16.00;91.00;;;;;;5035420;28;20029;-76
2023/04/20 06:24:01;;;;;;;4.38;2.83;;;16.10;91.00;;;;;;5017835;28;20029;-76
2023/04/20 06:26:27;;;;;;;3.45;2.75;;;16.10;90.90;;;;;;5035456;28;20105;-76
2023/04/20 06:28:52;;;;;;;3.15;2.50;;;16.10;90.90;;;;;;5035382;28;20034;-76
2023/04/20 06:31:21;;;;;;;3.55;2.78;;;16.10;90.80;;;;;;5053946;28;20029;-76
2023/04/20 06:33:47;;;;;;;5.53;2.72;;;16.20;90.90;;;;;;5054054;28;20449;-76
2023/04/20 06:36:12;;;;;;;4.22;2.97;;;16.20;90.90;;;;;;5054946;28;20025;-76
2023/04/20 06:38:39;;;;;;;6.70;2.80;;;16.20;90.90;;;;;;5055226;28;20025;-76
2023/04/20 06:41:05;;;;;;;3.33;3.03;;;16.20;90.90;;;;;;5055160;28;20053;-76
2023/04/20 06:43:31;;;;;;;3.20;2.70;;;16.20;91.10;;;;;;5054972;28;20053;-76
2023/04/20 06:45:56;;;;;;;3.17;2.60;;;16.20;90.90;;;;;;5037461;28;20060;-76
2023/04/20 06:48:22;;;;;;;3.25;2.67;;;16.20;90.90;;;;;;5054937;28;20029;-76
2023/04/20 06:50:48;;;;;;;4.43;2.92;;;16.20;90.90;;;;;;5054869;28;20347;-76
2023/04/20 06:53:14;;;;;;;6.03;3.13;;;16.20;90.90;;;;;;5054955;28;20028;-76
2023/04/20 06:55:40;;;;;;;2.92;2.63;;;16.10;91.00;;;;;;5054658;28;20036;-76
2023/04/20 06:58:06;;;;;;;3.58;2.90;;;16.20;91.10;;;;;;5054946;28;20029;-76
2023/04/20 07:00:31;;;;;;;3.42;2.80;;;16.20;90.90;;;;;;5039583;28;20101;-76
2023/04/20 07:02:57;;;;;;;4.32;3.25;;;16.10;90.90;;;;;;5034837;28;20017;-76
2023/04/20 07:05:23;;;;;;;5.00;3.60;;;16.10;90.90;;;;;;5034659;28;20478;-76
2023/04/20 07:07:50;;;;;;;4.95;3.15;;;16.00;90.80;;;;;;5034681;28;20523;-76
2023/04/20 07:10:15;;;;;;;3.88;3.25;;;16.00;91.00;;;;;;5034486;28;20017;-79
2023/04/20 07:12:42;;;;;;;4.82;3.30;;;16.10;91.10;;;;;;5034557;28;20454;-79
2023/04/20 07:15:08;;;;;;;5.25;3.60;;;16.20;91.30;;;;;;5034530;28;20354;-79
2023/04/20 07:17:34;;;;;;;8.95;3.33;;;16.30;91.50;;;;;;5034207;28;20045;-79
2023/04/20 07:20:07;;;;;;;4.32;3.65;;;16.30;91.20;;;;;;5034316;28;20029;-79
2023/04/20 07:22:42;;;;;;;6.13;3.50;;;16.40;91.20;;;;;;5034546;28;20053;-79
2023/04/20 07:25:09;;;;;;;6.18;3.75;;;16.40;91.10;;;;;;5034449;28;20382;-79
2023/04/20 07:27:39;;;;;;;4.03;3.00;;;16.50;91.10;;;;;;5034269;28;20104;-79
2023/04/20 07:30:05;;;;;;;;;;;16.50;90.90;;;;;;5038064;28;20045;-79
2023/04/20 07:32:32;;;;;;;4.50;2.90;;;16.50;90.80;;;;;;5016521;28;19905;-79
2023/04/20 07:34:58;;;;;;;3.33;2.97;;;16.40;90.70;;;;;;5034028;28;20116;-79
2023/04/20 07:37:23;;;;;;;4.07;3.00;;;16.40;90.70;;;;;;5034272;28;20112;-79
2023/04/20 07:39:52;;;;;;;4.13;3.72;;;16.40;90.70;;;;;;5034116;28;20057;-79
2023/04/20 07:42:18;;;;;;;4.03;2.63;;;16.50;90.90;;;;;;5033982;28;20014;-79
2023/04/20 07:44:43;;;;;;;4.57;3.78;;;16.40;90.80;;;;;;5033962;28;20037;-79
2023/04/20 07:47:09;;;;;;;7.25;3.65;;;16.50;91.00;;;;;;5033860;28;20033;-79
2023/04/20 07:49:37;;;;;;;5.03;2.97;;;16.50;90.80;;;;;;5033827;28;20037;-79
2023/04/20 07:52:03;;;;;;;3.92;3.20;;;16.50;90.80;;;;;;5033542;28;20017;-79
2023/04/20 07:54:28;;;;;;;4.50;3.60;;;16.50;90.80;;;;;;5033762;28;20040;-79
2023/04/20 07:56:55;;;;;;;4.20;3.08;;;16.50;90.90;;;;;;5033238;28;20464;-79
2023/04/20 07:59:20;;;;;;;3.78;2.85;;;16.50;90.70;;;;;;5037965;28;20028;-79
2023/04/20 08:01:47;;;;;;;5.93;3.53;;;16.60;90.80;;;;;;5053591;28;20453;-79
2023/04/20 08:04:12;;;;;;;5.65;3.40;;;16.60;90.70;;;;;;5053292;28;20037;-78
2023/04/20 08:06:38;;;;;;;7.05;3.50;;;16.60;90.70;;;;;;5053398;28;20127;-78
2023/04/20 08:09:04;;;;;;;5.63;4.15;;;16.60;90.80;;;;;;5027521;28;20343;-78
2023/04/20 08:11:30;;;;;;;5.55;3.67;;;16.60;90.80;;;;;;5013811;28;20026;-79
2023/04/20 08:13:55;;;;;;;5.18;3.55;;;16.60;90.80;;;;;;5013600;28;20033;-79
2023/04/20 08:16:21;;;;;;;6.45;3.95;;;16.50;90.90;;;;;;5013562;28;20030;-79
2023/04/20 08:18:47;;;;;;;4.90;3.90;;;16.60;91.00;;;;;;5013609;28;20530;-76
2023/04/20 08:21:13;;;;;;;5.63;3.80;;;16.60;91.00;;;;;;5013849;28;20061;-76
2023/04/20 08:23:39;;;;;;;5.60;4.43;;;16.70;91.10;;;;;;5012219;28;20065;-76
2023/04/20 08:26:04;;;;;;;5.53;3.30;;;16.70;91.20;;;;;;5013552;28;20061;-79
2023/04/20 08:28:30;;;;;;;4.30;3.30;;;16.70;91.20;;;;;;5013515;28;20084;-76
2023/04/20 08:30:55;;;;;;;5.50;3.60;;;16.80;91.00;;;;;;5042137;28;20044;-76
2023/04/20 08:33:21;;;;;;;5.13;3.13;;;16.80;90.60;;;;;;5015443;28;20382;-79
2023/04/20 08:35:50;;;;;;;3.65;2.90;;;16.80;90.20;;;;;;5033408;28;20022;-79
2023/04/20 08:38:16;;;;;;;4.72;3.38;;;16.90;90.00;;;;;;5033367;28;20021;-79
2023/04/20 08:40:42;;;;;;;5.95;3.63;;;17.00;90.00;;;;;;5033405;28;20520;-79
2023/04/20 08:43:08;;;;;;;5.40;2.78;;;17.10;89.20;;;;;;5033318;28;20508;-79
2023/04/20 08:45:34;;;;;;;4.25;3.13;;;17.10;89.60;;;;;;5033117;28;20390;-79
2023/04/20 08:48:09;;;;;;;3.70;2.88;;;17.20;89.20;;;;;;5033269;28;20037;-79
2023/04/20 08:50:36;;;;;;;4.82;3.38;;;17.30;88.70;;;;;;5033258;28;20104;-79
2023/04/20 08:53:03;;;;;;;3.40;3.10;;;17.30;88.10;;;;;;5032406;28;20109;-79
2023/04/20 08:55:29;;;;;;;4.28;3.15;;;17.30;88.10;;;;;;5031543;28;20060;-79
2023/04/20 08:57:54;;;;;;;4.20;3.22;;;17.40;88.10;;;;;;5028278;28;20132;-79
2023/04/20 09:00:20;;;;;;;8.52;3.72;;;17.40;88.50;;;;;;5042957;28;20029;-82
2023/04/20 09:02:54;;;;;;;3.58;3.13;;;17.50;87.00;;;;;;5034840;28;20362;-80
2023/04/20 09:05:29;;;;;;;4.18;3.03;;;17.60;86.80;;;;;;5017398;28;20044;-80
2023/04/20 09:08:00;;;;;;;4.43;3.08;;;17.60;86.00;;;;;;5036501;28;20049;-80
2023/04/20 09:10:37;;;;;;;5.20;3.50;;;17.80;85.60;;;;;;5036576;28;20080;-78
2023/04/20 09:13:02;;;;;;;6.63;4.22;;;17.90;85.30;;;;;;5036538;28;20091;-81
2023/04/20 09:15:29;;;;;;;5.85;3.38;;;18.00;83.90;;;;;;5018738;28;20401;-80
2023/04/20 09:17:55;;;;;;;4.75;3.33;;;18.10;84.50;;;;;;5031933;28;20135;-77
2023/04/20 09:20:33;;;;;;;4.55;3.75;;;18.10;84.30;;;;;;5051876;28;20107;-77
2023/04/20 09:23:31;;;;;;;6.30;3.97;;;18.20;83.50;;;;;;5035108;28;20025;-78
2023/04/20 09:25:57;;;;;;;6.60;4.63;;;18.40;82.90;;;;;;5002975;28;20546;-80
2023/04/20 09:28:22;;;;;;;4.50;3.20;;;18.50;81.20;;;;;;5036008;28;20076;-80
2023/04/20 09:30:50;;;;;;;4.15;2.70;;;18.40;82.00;;;;;;5036023;28;20061;-80
2023/04/20 09:33:17;;;;;;;17.95;5.13;;;18.40;81.20;;;;;;5017517;28;20103;-81
2023/04/20 09:35:44;;;;;;;5.80;3.60;;;18.40;80.60;;;;;;5033092;28;20385;-81
2023/04/20 09:38:14;;;;;;;4.18;3.25;;;18.20;81.30;;;;;;5036526;28;20026;-81
2023/04/20 09:40:40;;;;;;;4.22;3.10;;;18.30;82.10;;;;;;5018088;28;20032;-80
2023/04/20 09:43:12;;;;;;;6.47;3.30;;;18.30;82.60;;;;;;5016559;28;20025;-80
2023/04/20 09:45:38;;;;;;;5.07;4.03;;;18.40;82.30;;;;;;5020429;28;20536;-79
2023/04/20 09:48:07;;;;;;;4.93;3.72;;;18.60;82.10;;;;;;5023171;28;20057;-77
2023/04/20 09:50:37;;;;;;;6.25;3.78;;;18.60;81.80;;;;;;5034389;28;20029;-79
2023/04/20 09:53:03;;;;;;;6.82;3.72;;;18.50;82.00;;;;;;5040148;28;20044;-82
2023/04/20 09:55:30;;;;;;;5.13;4.03;;;18.50;81.70;;;;;;5041480;28;20029;-82
2023/04/20 09:57:57;;;;;;;6.50;4.38;;;18.40;81.60;;;;;;5045975;28;20032;-82
2023/04/20 10:00:23;;;;;;;4.90;3.60;;;18.40;81.10;;;;;;5046134;28;20029;-81
2023/04/20 10:02:50;;;;;;;5.05;4.15;;;18.30;81.20;;;;;;5038590;28;20028;-82
2023/04/20 10:05:16;;;;;;;5.60;4.20;;;18.20;82.20;;;;;;5035261;28;20056;-81
2023/04/20 10:07:42;;;;;;;5.50;3.70;;;18.20;82.00;;;;;;5035402;28;20021;-82
2023/04/20 10:10:13;;;;;;;5.00;4.10;;;18.10;82.30;;;;;;5046769;28;20108;-76
2023/04/20 10:12:56;;;;;;;8.48;4.00;;;18.00;82.20;;;;;;5038727;28;20472;-76
2023/04/20 10:15:23;;;;;;;4.60;3.60;;;18.00;83.00;;;;;;4998224;28;20113;-76
2023/04/20 10:17:49;;;;;;;6.20;4.30;;;18.00;83.80;;;;;;5033726;28;20132;-76
2023/04/20 10:20:24;;;;;;;5.38;3.65;;;18.00;84.10;;;;;;5035621;28;20033;-76
2023/04/20 10:22:51;;;;;;;3.92;3.35;;;18.10;84.30;;;;;;5035366;28;20026;-76
2023/04/20 10:25:25;;;;;;;4.03;3.15;;;18.20;85.10;;;;;;5017668;28;20029;-77
2023/04/20 10:27:59;;;;;;;4.22;3.60;;;18.40;85.50;;;;;;5035219;28;20022;-76
2023/04/20 10:30:26;;;;;;;8.75;3.85;;;18.40;84.50;;;;;;5054598;28;20370;-76
2023/04/20 10:33:12;;;;;;;4.03;3.63;;;18.40;83.90;;;;;;5055676;28;20021;-76
2023/04/20 10:35:53;;;;;;;4.68;3.92;;;18.40;83.20;;;;;;5055543;28;20048;-76
2023/04/20 10:38:35;;;;;;;4.55;3.17;;;18.30;82.20;;;;;;5054884;28;20033;-76
2023/04/20 10:41:12;;;;;;;4.85;2.92;;;18.20;82.30;;;;;;5055347;28;20025;-76
2023/04/20 10:43:41;;;;;;;4.30;3.67;;;18.10;82.70;;;;;;5055182;28;20057;-76
2023/04/20 10:46:20;;;;;;;4.55;3.20;;;18.10;82.80;;;;;;5054998;28;20071;-77
2023/04/20 10:48:52;;;;;;;4.43;3.00;;;18.10;82.40;;;;;;5036934;28;20497;-74
2023/04/20 10:51:18;;;;;;;3.63;3.25;;;18.10;82.50;;;;;;5020525;28;20066;-77
2023/04/20 10:53:44;;;;;;;6.80;4.38;;;18.00;81.80;;;;;;5032664;28;20037;-80
2023/04/20 10:56:09;;;;;;;5.32;3.63;;;18.00;81.70;;;;;;5034073;28;20039;-81
2023/04/20 10:58:35;;;;;;;4.65;3.72;;;18.00;81.80;;;;;;5034323;28;20093;-80
2023/04/20 11:01:03;;;;;;;3.60;3.10;;;18.00;82.10;;;;;;5035283;28;20022;-80
2023/04/20 11:03:31;;;;;;;3.58;3.00;;;18.00;82.90;;;;;;5028847;28;20018;-81
2023/04/20 11:06:00;;;;;;;5.85;3.10;;;18.00;82.80;;;;;;5029070;28;20026;-81
2023/04/20 11:08:55;;;;;;;3.60;3.23;;;18.00;82.40;;;;;;5032002;28;20017;-82
2023/04/20 11:11:28;;;;;;;3.90;3.08;;;18.00;82.30;;;;;;5018649;28;20752;-82
2023/04/20 11:14:14;;;;;;;4.63;3.67;;;18.00;82.50;;;;;;5029695;28;20033;-82
2023/04/20 11:16:51;;;;;;;6.55;3.70;;;17.90;81.70;;;;;;5021369;28;20033;-80
2023/04/20 11:19:23;;;;;;;4.00;2.83;;;17.80;81.90;;;;;;5049135;28;20373;-80
2023/04/20 11:21:49;;;;;;;3.90;3.10;;;17.80;81.70;;;;;;5016864;28;20465;-80
2023/04/20 11:24:23;;;;;;;8.27;3.53;;;17.80;82.30;;;;;;5034603;28;20057;-82
2023/04/20 11:26:49;;;;;;;4.93;3.85;;;17.90;82.40;;;;;;5034229;28;20382;-82
2023/04/20 11:29:35;;;;;;;3.38;2.70;;;17.90;82.10;;;;;;5035378;28;20029;-82
2023/04/20 11:32:10;;;;;;;4.63;3.28;;;17.90;81.60;;;;;;5034112;28;20124;-82
2023/04/20 11:34:38;;;;;;;4.13;3.30;;;18.00;81.40;;;;;;5034259;28;20067;-82
2023/04/20 11:37:09;;;;;;;3.47;2.90;;;17.90;81.20;;;;;;5016346;28;20088;-82
2023/04/20 11:39:35;;;;;;;3.25;2.58;;;17.90;81.20;;;;;;4996878;28;20022;-82
2023/04/20 11:42:02;;;;;;;8.05;3.30;;;18.00;81.50;;;;;;5014416;28;20029;-82
2023/04/20 11:44:28;;;;;;;4.57;2.60;;;18.00;81.30;;;;;;5014447;28;20065;-82
2023/04/20 11:46:56;;;;;;;4.05;3.33;;;18.00;81.50;;;;;;5029892;28;20062;-82
2023/04/20 11:49:23;;;;;;;4.25;3.25;;;18.00;81.80;;;;;;5034189;28;20450;-82
2023/04/20 11:51:50;;;;;;;4.97;3.45;;;17.90;81.00;;;;;;5034168;28;20029;-82
2023/04/20 11:54:17;;;;;;;4.25;3.35;;;17.90;81.10;;;;;;5034195;28;20029;-82
2023/04/20 11:56:43;;;;;;;5.03;2.90;;;17.90;81.10;;;;;;5033979;28;20026;-82
2023/04/20 11:59:13;;;;;;;3.28;2.95;;;17.80;81.00;;;;;;5043763;28;20068;-82
2023/04/20 12:01:39;;;;;;;4.72;3.13;;;17.80;81.00;;;;;;5054084;28;20047;-82
2023/04/20 12:04:05;;;;;;;3.80;3.20;;;17.80;81.20;;;;;;5053738;28;20036;-83
2023/04/20 12:06:31;;;;;;;3.78;2.80;;;17.80;81.30;;;;;;5040222;28;20033;-82
2023/04/20 12:08:57;;;;;;;5.90;4.30;;;17.80;81.40;;;;;;5033564;28;20060;-82
2023/04/20 12:11:23;;;;;;;5.18;3.33;;;17.80;81.60;;;;;;5033903;28;20382;-80
2023/04/20 12:13:49;;;;;;;5.68;4.10;;;17.80;81.70;;;;;;5033701;28;20034;-80
2023/04/20 12:16:15;;;;;;;3.55;3.08;;;17.80;82.20;;;;;;5005460;28;20057;-80
2023/04/20 12:18:41;;;;;;;5.55;3.70;;;17.90;82.00;;;;;;5013761;28;20390;-79
2023/04/20 12:21:07;;;;;;;3.38;2.97;;;17.80;81.70;;;;;;5013861;28;20422;-79
2023/04/20 12:23:36;;;;;;;4.18;3.13;;;17.80;81.70;;;;;;5029072;28;20030;-79
2023/04/20 12:26:03;;;;;;;3.58;3.15;;;17.70;81.50;;;;;;5035649;28;20021;-79
2023/04/20 12:28:29;;;;;;;3.42;3.03;;;17.70;81.60;;;;;;5041596;28;20028;-80
2023/04/20 12:30:55;;;;;;;4.43;3.38;;;17.70;82.20;;;;;;5034205;28;20060;-79
2023/04/20 12:33:21;;;;;;;6.00;3.55;;;17.60;81.80;;;;;;5052888;28;20445;-79
2023/04/20 12:35:47;;;;;;;4.28;3.00;;;17.60;82.00;;;;;;5046752;28;20025;-79
2023/04/20 12:38:12;;;;;;;3.58;2.85;;;17.60;81.80;;;;;;5033216;28;20481;-79
2023/04/20 12:40:38;;;;;;;4.90;3.40;;;17.50;82.10;;;;;;5032986;28;20083;-80
2023/04/20 12:43:04;;;;;;;3.97;2.90;;;17.50;82.40;;;;;;5032902;28;20045;-80
2023/04/20 12:45:30;;;;;;;3.40;2.72;;;17.50;82.50;;;;;;5031893;28;20466;-81
2023/04/20 12:47:57;;;;;;;3.25;2.85;;;17.40;82.40;;;;;;5031778;28;20228;-83